NOZ6YM ENGM-LOWS
Flight info
| Callsign | NOZ6YM |
|---|---|
| Flight time | N/A |
| Altitude | 35000 |
| Route | OKSAT L996 KELIN DCT SALLO DCT MAREM/N0454F360 DCT VESUB T106 NETES T700 BADIT BADIT2R |
| Aircraft | B738/M-SDE2E3FGHIRWXY/LB1 |
Departure
| Time | 2026-05-04 13:19 |
|---|---|
| Airport | Oslo-Gardermoen International Airport (ENGM) |
Arrival
| Time | N/A |
|---|---|
| Airport | Salzburg Airport (LOWS) |
| Time | Latitude | Longitude | Altitude | Speed | Heading |
|---|---|---|---|---|---|
| 2026-05-04 12:48 | 60.19507 | 11.09117 | 688 ft | 0 kts | 16° |
| 2026-05-04 13:07 | 60.19495 | 11.09111 | 690 ft | 4 kts | 16° |
| 2026-05-04 13:08 | 60.19470 | 11.09096 | 687 ft | 3 kts | 16° |
| 2026-05-04 13:08 | 60.19467 | 11.09094 | 687 ft | 1 kts | 16° |
| 2026-05-04 13:12 | 60.19471 | 11.09085 | 690 ft | 1 kts | 309° |
| 2026-05-04 13:12 | 60.19474 | 11.09065 | 683 ft | 2 kts | 279° |
| 2026-05-04 13:12 | 60.19475 | 11.09039 | 688 ft | 2 kts | 270° |
| 2026-05-04 13:12 | 60.19475 | 11.08995 | 685 ft | 4 kts | 271° |
| 2026-05-04 13:13 | 60.19484 | 11.08892 | 686 ft | 10 kts | 286° |
| 2026-05-04 13:13 | 60.19503 | 11.08756 | 690 ft | 10 kts | 285° |
| 2026-05-04 13:13 | 60.19526 | 11.08597 | 678 ft | 14 kts | 297° |
| 2026-05-04 13:13 | 60.19617 | 11.08579 | 680 ft | 14 kts | 17° |
| 2026-05-04 13:14 | 60.19708 | 11.08633 | 681 ft | 14 kts | 16° |
| 2026-05-04 13:14 | 60.19812 | 11.08691 | 681 ft | 17 kts | 15° |
| 2026-05-04 13:14 | 60.19923 | 11.08755 | 681 ft | 16 kts | 15° |
| 2026-05-04 13:14 | 60.20033 | 11.08819 | 679 ft | 16 kts | 15° |
| 2026-05-04 13:15 | 60.20142 | 11.08882 | 682 ft | 17 kts | 15° |
| 2026-05-04 13:15 | 60.20267 | 11.08953 | 682 ft | 21 kts | 16° |
| 2026-05-04 13:15 | 60.20419 | 11.09042 | 681 ft | 25 kts | 16° |
| 2026-05-04 13:15 | 60.20580 | 11.09135 | 679 ft | 23 kts | 16° |
| 2026-05-04 13:16 | 60.20733 | 11.09223 | 685 ft | 22 kts | 15° |
| 2026-05-04 13:16 | 60.20881 | 11.09308 | 687 ft | 22 kts | 15° |
| 2026-05-04 13:16 | 60.21026 | 11.09392 | 684 ft | 21 kts | 16° |
| 2026-05-04 13:16 | 60.21166 | 11.09473 | 683 ft | 21 kts | 16° |
| 2026-05-04 13:17 | 60.21301 | 11.09551 | 679 ft | 20 kts | 16° |
| 2026-05-04 13:17 | 60.21433 | 11.09627 | 680 ft | 19 kts | 15° |
| 2026-05-04 13:17 | 60.21520 | 11.09594 | 684 ft | 13 kts | 317° |
| 2026-05-04 13:17 | 60.21556 | 11.09434 | 683 ft | 13 kts | 285° |
| 2026-05-04 13:18 | 60.21578 | 11.09266 | 684 ft | 12 kts | 283° |
| 2026-05-04 13:18 | 60.21565 | 11.09141 | 682 ft | 9 kts | 209° |
| 2026-05-04 13:18 | 60.21488 | 11.09097 | 683 ft | 25 kts | 196° |
| 2026-05-04 13:18 | 60.21082 | 11.08860 | 683 ft | 95 kts | 197° |
| 2026-05-04 13:19 | 60.20242 | 11.08377 | 681 ft | 154 kts | 196° |
| 2026-05-04 13:19 | 60.19100 | 11.07770 | 1014 ft | 175 kts | 196° |
| 2026-05-04 13:19 | 60.17951 | 11.07101 | 1897 ft | 174 kts | 202° |
| 2026-05-04 13:19 | 60.16841 | 11.06240 | 2658 ft | 170 kts | 220° |
| 2026-05-04 13:20 | 60.16119 | 11.04312 | 3097 ft | 183 kts | 250° |
| 2026-05-04 13:20 | 60.15609 | 11.01874 | 3518 ft | 197 kts | 249° |
| 2026-05-04 13:20 | 60.15023 | 10.99213 | 3759 ft | 216 kts | 248° |
| 2026-05-04 13:20 | 60.14427 | 10.96392 | 4264 ft | 223 kts | 256° |
| 2026-05-04 13:21 | 60.14329 | 10.93174 | 4594 ft | 240 kts | 276° |
| 2026-05-04 13:21 | 60.14596 | 10.89871 | 5367 ft | 243 kts | 279° |
| 2026-05-04 13:21 | 60.14915 | 10.86521 | 6217 ft | 246 kts | 280° |
| 2026-05-04 13:21 | 60.15471 | 10.83253 | 6989 ft | 252 kts | 301° |
| 2026-05-04 13:22 | 60.16718 | 10.80740 | 7840 ft | 259 kts | 323° |
| 2026-05-04 13:22 | 60.18413 | 10.79357 | 8617 ft | 272 kts | 345° |
| 2026-05-04 13:22 | 60.20320 | 10.78903 | 9357 ft | 281 kts | 352° |
| 2026-05-04 13:22 | 60.22282 | 10.79636 | 9986 ft | 300 kts | 20° |
| 2026-05-04 13:23 | 60.23999 | 10.82350 | 10187 ft | 334 kts | 51° |
| 2026-05-04 13:23 | 60.25071 | 10.86641 | 10561 ft | 352 kts | 67° |
| 2026-05-04 13:23 | 60.25976 | 10.91291 | 11144 ft | 360 kts | 66° |
| 2026-05-04 13:23 | 60.26942 | 10.95975 | 11829 ft | 364 kts | 65° |
| 2026-05-04 13:24 | 60.27899 | 11.00752 | 12480 ft | 371 kts | 73° |
| 2026-05-04 13:24 | 60.28121 | 11.05950 | 13057 ft | 379 kts | 99° |
| 2026-05-04 13:24 | 60.27329 | 11.10977 | 13678 ft | 377 kts | 123° |
| 2026-05-04 13:25 | 60.23626 | 11.17970 | 14915 ft | 366 kts | 156° |
| 2026-05-04 13:25 | 60.21423 | 11.20599 | 15503 ft | 370 kts | 158° |
| 2026-05-04 13:25 | 60.19180 | 11.23213 | 16110 ft | 375 kts | 158° |
| 2026-05-04 13:25 | 60.16914 | 11.25862 | 16728 ft | 378 kts | 158° |
| 2026-05-04 13:26 | 60.14630 | 11.28557 | 17323 ft | 383 kts | 159° |
| 2026-05-04 13:26 | 60.12315 | 11.31306 | 17869 ft | 390 kts | 159° |
| 2026-05-04 13:26 | 60.09968 | 11.34109 | 18362 ft | 395 kts | 159° |
| 2026-05-04 13:26 | 60.07605 | 11.36938 | 18882 ft | 397 kts | 159° |
| 2026-05-04 13:27 | 60.05236 | 11.39781 | 19514 ft | 397 kts | 159° |
| 2026-05-04 13:27 | 60.02859 | 11.42626 | 20115 ft | 398 kts | 159° |
| 2026-05-04 13:27 | 60.00477 | 11.45467 | 20698 ft | 400 kts | 159° |
| 2026-05-04 13:27 | 59.98080 | 11.48316 | 21221 ft | 402 kts | 159° |
| 2026-05-04 13:28 | 59.95682 | 11.51069 | 21643 ft | 401 kts | 163° |
| 2026-05-04 13:28 | 59.93160 | 11.53441 | 22115 ft | 401 kts | 166° |
| 2026-05-04 13:28 | 59.90586 | 11.55614 | 22563 ft | 404 kts | 167° |
| 2026-05-04 13:28 | 59.87970 | 11.57769 | 22950 ft | 410 kts | 167° |
| 2026-05-04 13:29 | 59.85327 | 11.59970 | 23340 ft | 415 kts | 167° |
| 2026-05-04 13:29 | 59.82660 | 11.62233 | 23744 ft | 418 kts | 166° |
| 2026-05-04 13:29 | 59.79974 | 11.64543 | 24033 ft | 423 kts | 166° |
| 2026-05-04 13:29 | 59.77259 | 11.66892 | 24361 ft | 428 kts | 166° |
| 2026-05-04 13:30 | 59.74517 | 11.69271 | 24722 ft | 431 kts | 166° |
| 2026-05-04 13:30 | 59.71761 | 11.71663 | 25119 ft | 433 kts | 166° |
| 2026-05-04 13:30 | 59.68991 | 11.74061 | 25524 ft | 435 kts | 166° |
| 2026-05-04 13:30 | 59.66204 | 11.76461 | 25854 ft | 439 kts | 166° |
| 2026-05-04 13:31 | 59.63379 | 11.78809 | 26040 ft | 440 kts | 169° |
| 2026-05-04 13:31 | 59.60471 | 11.80666 | 26312 ft | 439 kts | 173° |
| 2026-05-04 13:31 | 59.57525 | 11.82247 | 26745 ft | 438 kts | 174° |
| 2026-05-04 13:31 | 59.54574 | 11.83766 | 27142 ft | 439 kts | 174° |
| 2026-05-04 13:32 | 59.52573 | 11.84807 | 27337 ft | 442 kts | 174° |
| 2026-05-04 13:32 | 59.49579 | 11.86404 | 27629 ft | 447 kts | 173° |
| 2026-05-04 13:32 | 59.46609 | 11.88033 | 27812 ft | 453 kts | 173° |
| 2026-05-04 13:32 | 59.43557 | 11.89738 | 28122 ft | 456 kts | 172° |
| 2026-05-04 13:33 | 59.40509 | 11.91453 | 28512 ft | 457 kts | 172° |
| 2026-05-04 13:33 | 59.37446 | 11.93169 | 28833 ft | 459 kts | 172° |
| 2026-05-04 13:33 | 59.34359 | 11.94881 | 29083 ft | 462 kts | 173° |
| 2026-05-04 13:33 | 59.31234 | 11.95830 | 29225 ft | 447 kts | 190° |